sensor_id;sensor_type;location;lat;lon;timestamp;P1;durP1;ratioP1;P2;durP2;ratioP2
58966;SDS011;44744;51.894;5.080;2024-01-30T00:02:56;12.80;;;8.70;;
58966;SDS011;44744;51.894;5.080;2024-01-30T00:07:57;12.80;;;8.20;;
58966;SDS011;44744;51.894;5.080;2024-01-30T00:12:57;12.00;;;7.60;;
58966;SDS011;44744;51.894;5.080;2024-01-30T00:17:58;13.70;;;8.60;;
58966;SDS011;44744;51.894;5.080;2024-01-30T00:22:58;11.40;;;7.40;;
58966;SDS011;44744;51.894;5.080;2024-01-30T00:28:01;11.50;;;8.20;;
58966;SDS011;44744;51.894;5.080;2024-01-30T00:33:02;12.90;;;8.10;;
58966;SDS011;44744;51.894;5.080;2024-01-30T00:38:02;10.60;;;7.90;;
58966;SDS011;44744;51.894;5.080;2024-01-30T00:43:03;11.20;;;8.40;;
58966;SDS011;44744;51.894;5.080;2024-01-30T00:48:04;13.70;;;8.10;;
58966;SDS011;44744;51.894;5.080;2024-01-30T00:53:04;13.00;;;8.30;;
58966;SDS011;44744;51.894;5.080;2024-01-30T00:58:05;11.90;;;7.90;;
58966;SDS011;44744;51.894;5.080;2024-01-30T01:03:05;10.00;;;7.30;;
58966;SDS011;44744;51.894;5.080;2024-01-30T01:08:06;11.20;;;7.50;;
58966;SDS011;44744;51.894;5.080;2024-01-30T01:13:06;11.70;;;7.50;;
58966;SDS011;44744;51.894;5.080;2024-01-30T01:18:07;10.40;;;7.50;;
58966;SDS011;44744;51.894;5.080;2024-01-30T01:23:07;11.90;;;8.80;;
58966;SDS011;44744;51.894;5.080;2024-01-30T01:28:08;13.50;;;8.50;;
58966;SDS011;44744;51.894;5.080;2024-01-30T01:33:08;12.90;;;8.00;;
58966;SDS011;44744;51.894;5.080;2024-01-30T01:38:09;12.20;;;8.50;;
58966;SDS011;44744;51.894;5.080;2024-01-30T01:43:09;13.20;;;8.30;;
58966;SDS011;44744;51.894;5.080;2024-01-30T01:48:10;11.40;;;8.50;;
58966;SDS011;44744;51.894;5.080;2024-01-30T01:53:12;15.10;;;7.80;;
58966;SDS011;44744;51.894;5.080;2024-01-30T01:58:13;13.80;;;8.30;;
58966;SDS011;44744;51.894;5.080;2024-01-30T02:03:14;15.20;;;8.00;;
58966;SDS011;44744;51.894;5.080;2024-01-30T02:08:18;11.80;;;7.70;;
58966;SDS011;44744;51.894;5.080;2024-01-30T02:13:20;12.60;;;8.00;;
58966;SDS011;44744;51.894;5.080;2024-01-30T02:18:22;10.60;;;7.70;;
58966;SDS011;44744;51.894;5.080;2024-01-30T02:23:23;10.50;;;7.60;;
58966;SDS011;44744;51.894;5.080;2024-01-30T02:28:27;9.10;;;6.90;;
58966;SDS011;44744;51.894;5.080;2024-01-30T02:33:27;10.80;;;7.80;;
58966;SDS011;44744;51.894;5.080;2024-01-30T02:38:28;13.90;;;8.00;;
58966;SDS011;44744;51.894;5.080;2024-01-30T02:43:28;11.50;;;7.40;;
58966;SDS011;44744;51.894;5.080;2024-01-30T02:48:29;8.90;;;7.10;;
58966;SDS011;44744;51.894;5.080;2024-01-30T02:53:29;13.20;;;8.90;;
58966;SDS011;44744;51.894;5.080;2024-01-30T02:58:30;13.00;;;8.40;;
58966;SDS011;44744;51.894;5.080;2024-01-30T03:03:30;13.50;;;8.80;;
58966;SDS011;44744;51.894;5.080;2024-01-30T03:08:31;11.50;;;8.50;;
58966;SDS011;44744;51.894;5.080;2024-01-30T03:13:32;9.70;;;7.60;;
58966;SDS011;44744;51.894;5.080;2024-01-30T03:18:32;10.60;;;7.90;;
58966;SDS011;44744;51.894;5.080;2024-01-30T03:23:32;13.70;;;7.90;;
58966;SDS011;44744;51.894;5.080;2024-01-30T03:28:33;11.40;;;8.10;;
58966;SDS011;44744;51.894;5.080;2024-01-30T03:33:33;11.50;;;7.80;;
58966;SDS011;44744;51.894;5.080;2024-01-30T03:38:34;10.80;;;7.70;;
58966;SDS011;44744;51.894;5.080;2024-01-30T03:43:35;11.40;;;7.50;;
58966;SDS011;44744;51.894;5.080;2024-01-30T03:48:35;12.30;;;7.80;;
58966;SDS011;44744;51.894;5.080;2024-01-30T03:53:36;11.30;;;8.00;;
58966;SDS011;44744;51.894;5.080;2024-01-30T03:58:36;11.80;;;7.10;;
58966;SDS011;44744;51.894;5.080;2024-01-30T04:03:36;9.70;;;6.80;;
58966;SDS011;44744;51.894;5.080;2024-01-30T04:08:37;10.30;;;7.50;;
58966;SDS011;44744;51.894;5.080;2024-01-30T04:13:37;13.20;;;7.20;;
58966;SDS011;44744;51.894;5.080;2024-01-30T04:18:38;10.70;;;7.60;;
58966;SDS011;44744;51.894;5.080;2024-01-30T04:23:39;9.50;;;6.90;;
58966;SDS011;44744;51.894;5.080;2024-01-30T04:28:43;11.00;;;7.00;;
58966;SDS011;44744;51.894;5.080;2024-01-30T04:33:44;11.50;;;7.10;;
58966;SDS011;44744;51.894;5.080;2024-01-30T04:38:45;12.30;;;7.10;;
58966;SDS011;44744;51.894;5.080;2024-01-30T04:43:45;9.50;;;7.00;;
58966;SDS011;44744;51.894;5.080;2024-01-30T04:48:46;9.00;;;6.70;;
58966;SDS011;44744;51.894;5.080;2024-01-30T04:53:46;11.90;;;7.40;;
58966;SDS011;44744;51.894;5.080;2024-01-30T04:58:47;9.40;;;6.80;;
58966;SDS011;44744;51.894;5.080;2024-01-30T05:03:47;9.90;;;6.90;;
58966;SDS011;44744;51.894;5.080;2024-01-30T05:08:47;10.40;;;6.80;;
58966;SDS011;44744;51.894;5.080;2024-01-30T05:13:48;10.10;;;6.90;;
58966;SDS011;44744;51.894;5.080;2024-01-30T05:18:48;11.70;;;6.20;;
58966;SDS011;44744;51.894;5.080;2024-01-30T05:23:49;10.00;;;6.50;;
58966;SDS011;44744;51.894;5.080;2024-01-30T05:28:49;11.90;;;6.50;;
58966;SDS011;44744;51.894;5.080;2024-01-30T05:33:49;10.40;;;7.20;;
58966;SDS011;44744;51.894;5.080;2024-01-30T05:38:52;14.30;;;7.40;;
58966;SDS011;44744;51.894;5.080;2024-01-30T05:43:53;9.50;;;6.30;;
58966;SDS011;44744;51.894;5.080;2024-01-30T05:48:53;8.70;;;6.50;;
58966;SDS011;44744;51.894;5.080;2024-01-30T05:53:54;10.60;;;6.60;;
58966;SDS011;44744;51.894;5.080;2024-01-30T05:58:55;14.60;;;9.30;;
58966;SDS011;44744;51.894;5.080;2024-01-30T06:03:55;11.80;;;5.90;;
58966;SDS011;44744;51.894;5.080;2024-01-30T06:08:56;9.20;;;6.30;;
58966;SDS011;44744;51.894;5.080;2024-01-30T06:13:56;9.90;;;6.20;;
58966;SDS011;44744;51.894;5.080;2024-01-30T06:18:57;9.10;;;6.70;;
58966;SDS011;44744;51.894;5.080;2024-01-30T06:24:00;11.60;;;6.50;;
58966;SDS011;44744;51.894;5.080;2024-01-30T06:29:00;8.90;;;6.50;;
58966;SDS011;44744;51.894;5.080;2024-01-30T06:34:00;11.70;;;6.30;;
58966;SDS011;44744;51.894;5.080;2024-01-30T06:39:02;11.30;;;7.10;;
58966;SDS011;44744;51.894;5.080;2024-01-30T06:44:02;14.30;;;7.20;;
58966;SDS011;44744;51.894;5.080;2024-01-30T06:49:04;12.10;;;7.50;;
58966;SDS011;44744;51.894;5.080;2024-01-30T06:54:05;12.30;;;7.20;;
58966;SDS011;44744;51.894;5.080;2024-01-30T06:59:05;14.80;;;8.00;;
58966;SDS011;44744;51.894;5.080;2024-01-30T07:04:06;11.90;;;7.50;;
58966;SDS011;44744;51.894;5.080;2024-01-30T07:09:06;13.00;;;7.60;;
58966;SDS011;44744;51.894;5.080;2024-01-30T07:14:07;11.60;;;7.10;;
58966;SDS011;44744;51.894;5.080;2024-01-30T07:19:08;10.60;;;6.50;;
58966;SDS011;44744;51.894;5.080;2024-01-30T07:24:09;10.00;;;6.90;;
58966;SDS011;44744;51.894;5.080;2024-01-30T07:29:10;11.50;;;7.20;;
58966;SDS011;44744;51.894;5.080;2024-01-30T07:34:10;10.90;;;6.30;;
58966;SDS011;44744;51.894;5.080;2024-01-30T07:39:10;10.00;;;6.80;;
58966;SDS011;44744;51.894;5.080;2024-01-30T07:44:11;12.80;;;6.50;;
58966;SDS011;44744;51.894;5.080;2024-01-30T07:49:13;11.20;;;7.20;;
58966;SDS011;44744;51.894;5.080;2024-01-30T07:54:14;8.90;;;6.20;;
58966;SDS011;44744;51.894;5.080;2024-01-30T07:59:15;9.90;;;6.70;;
58966;SDS011;44744;51.894;5.080;2024-01-30T08:04:15;12.70;;;6.10;;
58966;SDS011;44744;51.894;5.080;2024-01-30T08:09:15;13.50;;;6.60;;
58966;SDS011;44744;51.894;5.080;2024-01-30T08:14:16;10.40;;;6.10;;
58966;SDS011;44744;51.894;5.080;2024-01-30T08:19:16;12.10;;;7.00;;
58966;SDS011;44744;51.894;5.080;2024-01-30T08:24:17;13.50;;;6.80;;
58966;SDS011;44744;51.894;5.080;2024-01-30T08:29:17;10.60;;;6.30;;
58966;SDS011;44744;51.894;5.080;2024-01-30T08:34:17;14.90;;;6.90;;
58966;SDS011;44744;51.894;5.080;2024-01-30T08:39:18;12.00;;;6.60;;
58966;SDS011;44744;51.894;5.080;2024-01-30T08:44:19;17.10;;;6.50;;
58966;SDS011;44744;51.894;5.080;2024-01-30T08:49:19;11.90;;;6.20;;
58966;SDS011;44744;51.894;5.080;2024-01-30T08:54:20;11.00;;;6.20;;
58966;SDS011;44744;51.894;5.080;2024-01-30T08:59:20;12.50;;;7.00;;
58966;SDS011;44744;51.894;5.080;2024-01-30T09:04:21;13.50;;;7.30;;
58966;SDS011;44744;51.894;5.080;2024-01-30T09:09:21;13.00;;;6.40;;
58966;SDS011;44744;51.894;5.080;2024-01-30T09:14:22;11.90;;;6.90;;
58966;SDS011;44744;51.894;5.080;2024-01-30T09:19:22;12.20;;;6.60;;
58966;SDS011;44744;51.894;5.080;2024-01-30T09:24:23;11.80;;;7.40;;
58966;SDS011;44744;51.894;5.080;2024-01-30T09:29:23;13.50;;;6.80;;
58966;SDS011;44744;51.894;5.080;2024-01-30T09:34:24;13.50;;;6.80;;
58966;SDS011;44744;51.894;5.080;2024-01-30T09:39:24;16.30;;;6.70;;
58966;SDS011;44744;51.894;5.080;2024-01-30T09:44:24;14.30;;;7.20;;
58966;SDS011;44744;51.894;5.080;2024-01-30T09:49:30;10.30;;;6.20;;
58966;SDS011;44744;51.894;5.080;2024-01-30T09:54:33;13.70;;;6.90;;
58966;SDS011;44744;51.894;5.080;2024-01-30T09:59:34;15.00;;;6.50;;
58966;SDS011;44744;51.894;5.080;2024-01-30T10:04:35;10.40;;;6.50;;
58966;SDS011;44744;51.894;5.080;2024-01-30T10:09:36;9.50;;;6.20;;
58966;SDS011;44744;51.894;5.080;2024-01-30T10:14:40;13.30;;;6.30;;
58966;SDS011;44744;51.894;5.080;2024-01-30T10:19:41;10.00;;;5.80;;
58966;SDS011;44744;51.894;5.080;2024-01-30T10:24:41;8.60;;;6.00;;
58966;SDS011;44744;51.894;5.080;2024-01-30T10:29:43;8.80;;;5.30;;
58966;SDS011;44744;51.894;5.080;2024-01-30T10:34:43;12.20;;;5.70;;
58966;SDS011;44744;51.894;5.080;2024-01-30T10:39:44;12.10;;;6.10;;
58966;SDS011;44744;51.894;5.080;2024-01-30T10:44:54;6.80;;;4.70;;
58966;SDS011;44744;51.894;5.080;2024-01-30T10:50:00;10.00;;;4.30;;
58966;SDS011;44744;51.894;5.080;2024-01-30T10:55:02;8.20;;;4.20;;
58966;SDS011;44744;51.894;5.080;2024-01-30T11:00:08;5.70;;;3.20;;
58966;SDS011;44744;51.894;5.080;2024-01-30T11:05:12;10.40;;;3.80;;
58966;SDS011;44744;51.894;5.080;2024-01-30T11:10:12;9.20;;;3.30;;
58966;SDS011;44744;51.894;5.080;2024-01-30T11:15:15;7.10;;;2.90;;
58966;SDS011;44744;51.894;5.080;2024-01-30T11:20:20;8.80;;;3.10;;
58966;SDS011;44744;51.894;5.080;2024-01-30T11:25:32;5.70;;;2.70;;
58966;SDS011;44744;51.894;5.080;2024-01-30T11:30:33;5.70;;;2.50;;
58966;SDS011;44744;51.894;5.080;2024-01-30T11:35:34;3.50;;;1.90;;
58966;SDS011;44744;51.894;5.080;2024-01-30T11:40:36;3.10;;;1.30;;
58966;SDS011;44744;51.894;5.080;2024-01-30T11:45:38;2.10;;;1.20;;
58966;SDS011;44744;51.894;5.080;2024-01-30T11:50:39;4.20;;;1.20;;
58966;SDS011;44744;51.894;5.080;2024-01-30T11:55:50;4.00;;;1.40;;
58966;SDS011;44744;51.894;5.080;2024-01-30T12:00:54;4.90;;;1.70;;
58966;SDS011;44744;51.894;5.080;2024-01-30T12:05:56;4.30;;;1.90;;
58966;SDS011;44744;51.894;5.080;2024-01-30T12:11:00;4.30;;;2.10;;
58966;SDS011;44744;51.894;5.080;2024-01-30T12:16:05;9.40;;;3.80;;
58966;SDS011;44744;51.894;5.080;2024-01-30T12:21:06;11.60;;;3.00;;
58966;SDS011;44744;51.894;5.080;2024-01-30T12:26:08;5.80;;;2.20;;
58966;SDS011;44744;51.894;5.080;2024-01-30T12:31:10;8.80;;;2.70;;
58966;SDS011;44744;51.894;5.080;2024-01-30T12:36:11;9.10;;;3.10;;
58966;SDS011;44744;51.894;5.080;2024-01-30T12:41:12;6.60;;;2.50;;
58966;SDS011;44744;51.894;5.080;2024-01-30T12:46:13;5.00;;;2.10;;
58966;SDS011;44744;51.894;5.080;2024-01-30T12:51:13;4.90;;;1.90;;
58966;SDS011;44744;51.894;5.080;2024-01-30T12:56:16;9.00;;;2.40;;
58966;SDS011;44744;51.894;5.080;2024-01-30T13:01:16;5.20;;;2.00;;
58966;SDS011;44744;51.894;5.080;2024-01-30T13:06:17;6.40;;;2.10;;
58966;SDS011;44744;51.894;5.080;2024-01-30T13:11:17;6.20;;;2.60;;
58966;SDS011;44744;51.894;5.080;2024-01-30T13:16:18;5.10;;;1.60;;
58966;SDS011;44744;51.894;5.080;2024-01-30T13:21:18;3.30;;;1.20;;
58966;SDS011;44744;51.894;5.080;2024-01-30T13:26:19;2.30;;;1.10;;
58966;SDS011;44744;51.894;5.080;2024-01-30T13:31:20;2.70;;;1.10;;
58966;SDS011;44744;51.894;5.080;2024-01-30T13:36:21;2.80;;;1.10;;
58966;SDS011;44744;51.894;5.080;2024-01-30T13:41:21;4.10;;;2.00;;
58966;SDS011;44744;51.894;5.080;2024-01-30T13:46:22;5.10;;;2.60;;
58966;SDS011;44744;51.894;5.080;2024-01-30T13:51:23;5.00;;;3.10;;
58966;SDS011;44744;51.894;5.080;2024-01-30T13:56:23;5.30;;;2.70;;
58966;SDS011;44744;51.894;5.080;2024-01-30T14:01:24;5.50;;;2.60;;
58966;SDS011;44744;51.894;5.080;2024-01-30T14:06:25;5.40;;;2.80;;
58966;SDS011;44744;51.894;5.080;2024-01-30T14:11:25;6.10;;;2.50;;
58966;SDS011;44744;51.894;5.080;2024-01-30T14:16:26;7.80;;;2.60;;
58966;SDS011;44744;51.894;5.080;2024-01-30T14:21:26;6.70;;;2.10;;
58966;SDS011;44744;51.894;5.080;2024-01-30T14:26:26;6.90;;;2.20;;
58966;SDS011;44744;51.894;5.080;2024-01-30T14:31:27;10.00;;;2.20;;
58966;SDS011;44744;51.894;5.080;2024-01-30T14:36:27;6.00;;;1.90;;
58966;SDS011;44744;51.894;5.080;2024-01-30T14:41:31;5.60;;;2.10;;
58966;SDS011;44744;51.894;5.080;2024-01-30T14:46:31;5.30;;;1.70;;
58966;SDS011;44744;51.894;5.080;2024-01-30T14:51:32;5.00;;;1.80;;
58966;SDS011;44744;51.894;5.080;2024-01-30T14:56:33;7.50;;;1.80;;
58966;SDS011;44744;51.894;5.080;2024-01-30T15:01:34;10.10;;;2.60;;
58966;SDS011;44744;51.894;5.080;2024-01-30T15:06:34;4.40;;;2.00;;
58966;SDS011;44744;51.894;5.080;2024-01-30T15:11:35;10.10;;;2.60;;
58966;SDS011;44744;51.894;5.080;2024-01-30T15:16:36;7.50;;;2.00;;
58966;SDS011;44744;51.894;5.080;2024-01-30T15:21:36;6.40;;;2.10;;
58966;SDS011;44744;51.894;5.080;2024-01-30T15:26:37;5.10;;;2.20;;
58966;SDS011;44744;51.894;5.080;2024-01-30T15:31:38;5.60;;;2.00;;
58966;SDS011;44744;51.894;5.080;2024-01-30T15:36:38;5.50;;;2.40;;
58966;SDS011;44744;51.894;5.080;2024-01-30T15:41:39;6.20;;;2.40;;
58966;SDS011;44744;51.894;5.080;2024-01-30T15:46:39;9.80;;;2.90;;
58966;SDS011;44744;51.894;5.080;2024-01-30T15:51:40;6.80;;;2.50;;
58966;SDS011;44744;51.894;5.080;2024-01-30T15:56:40;5.70;;;2.60;;
58966;SDS011;44744;51.894;5.080;2024-01-30T16:01:41;8.70;;;3.80;;
58966;SDS011;44744;51.894;5.080;2024-01-30T16:06:43;4.90;;;2.30;;
58966;SDS011;44744;51.894;5.080;2024-01-30T16:11:44;7.80;;;2.50;;
58966;SDS011;44744;51.894;5.080;2024-01-30T16:16:45;7.40;;;2.40;;
58966;SDS011;44744;51.894;5.080;2024-01-30T16:21:45;5.60;;;2.60;;
58966;SDS011;44744;51.894;5.080;2024-01-30T16:26:45;5.80;;;3.00;;
58966;SDS011;44744;51.894;5.080;2024-01-30T16:31:47;5.50;;;2.60;;
58966;SDS011;44744;51.894;5.080;2024-01-30T16:36:47;6.90;;;2.80;;
58966;SDS011;44744;51.894;5.080;2024-01-30T16:41:48;4.70;;;3.20;;
58966;SDS011;44744;51.894;5.080;2024-01-30T16:46:49;4.20;;;2.90;;
58966;SDS011;44744;51.894;5.080;2024-01-30T16:51:49;6.40;;;3.40;;
58966;SDS011;44744;51.894;5.080;2024-01-30T16:56:53;8.40;;;3.60;;
58966;SDS011;44744;51.894;5.080;2024-01-30T17:01:53;6.80;;;3.70;;
58966;SDS011;44744;51.894;5.080;2024-01-30T17:06:53;7.50;;;3.50;;
58966;SDS011;44744;51.894;5.080;2024-01-30T17:11:54;6.50;;;3.80;;
58966;SDS011;44744;51.894;5.080;2024-01-30T17:16:54;5.90;;;3.90;;
58966;SDS011;44744;51.894;5.080;2024-01-30T17:21:55;6.80;;;5.00;;
58966;SDS011;44744;51.894;5.080;2024-01-30T17:26:55;10.50;;;4.60;;
58966;SDS011;44744;51.894;5.080;2024-01-30T17:31:56;6.20;;;4.40;;
58966;SDS011;44744;51.894;5.080;2024-01-30T17:36:56;8.10;;;5.40;;
58966;SDS011;44744;51.894;5.080;2024-01-30T17:41:57;6.40;;;5.10;;
58966;SDS011;44744;51.894;5.080;2024-01-30T17:46:58;5.90;;;4.40;;
58966;SDS011;44744;51.894;5.080;2024-01-30T17:51:58;7.20;;;5.00;;
58966;SDS011;44744;51.894;5.080;2024-01-30T17:56:59;7.70;;;5.20;;
58966;SDS011;44744;51.894;5.080;2024-01-30T18:01:59;6.90;;;5.40;;
58966;SDS011;44744;51.894;5.080;2024-01-30T18:07:00;7.90;;;5.90;;
58966;SDS011;44744;51.894;5.080;2024-01-30T18:12:00;8.20;;;5.80;;
58966;SDS011;44744;51.894;5.080;2024-01-30T18:17:02;8.30;;;5.20;;
58966;SDS011;44744;51.894;5.080;2024-01-30T18:22:03;7.90;;;6.30;;
58966;SDS011;44744;51.894;5.080;2024-01-30T18:27:03;9.70;;;5.60;;
58966;SDS011;44744;51.894;5.080;2024-01-30T18:32:04;9.70;;;6.50;;
58966;SDS011;44744;51.894;5.080;2024-01-30T18:37:05;9.10;;;6.00;;
58966;SDS011;44744;51.894;5.080;2024-01-30T18:42:07;7.20;;;4.70;;
58966;SDS011;44744;51.894;5.080;2024-01-30T18:47:08;10.70;;;4.10;;
58966;SDS011;44744;51.894;5.080;2024-01-30T18:52:08;8.60;;;3.80;;
58966;SDS011;44744;51.894;5.080;2024-01-30T18:57:09;10.00;;;4.30;;
58966;SDS011;44744;51.894;5.080;2024-01-30T19:02:09;15.10;;;4.60;;
58966;SDS011;44744;51.894;5.080;2024-01-30T19:07:11;15.00;;;4.40;;
58966;SDS011;44744;51.894;5.080;2024-01-30T19:12:12;9.10;;;2.90;;
58966;SDS011;44744;51.894;5.080;2024-01-30T19:17:12;9.80;;;2.90;;
58966;SDS011;44744;51.894;5.080;2024-01-30T19:22:12;11.90;;;2.90;;
58966;SDS011;44744;51.894;5.080;2024-01-30T19:27:13;10.90;;;3.10;;
58966;SDS011;44744;51.894;5.080;2024-01-30T19:32:13;10.00;;;2.90;;
58966;SDS011;44744;51.894;5.080;2024-01-30T19:37:17;11.80;;;2.90;;
58966;SDS011;44744;51.894;5.080;2024-01-30T19:42:22;9.30;;;2.90;;
58966;SDS011;44744;51.894;5.080;2024-01-30T19:47:23;10.00;;;3.00;;
58966;SDS011;44744;51.894;5.080;2024-01-30T19:52:23;15.50;;;3.00;;
58966;SDS011;44744;51.894;5.080;2024-01-30T19:57:24;10.90;;;2.60;;
58966;SDS011;44744;51.894;5.080;2024-01-30T20:02:24;13.00;;;3.80;;
58966;SDS011;44744;51.894;5.080;2024-01-30T20:07:25;15.10;;;3.60;;
58966;SDS011;44744;51.894;5.080;2024-01-30T20:12:26;10.00;;;3.30;;
58966;SDS011;44744;51.894;5.080;2024-01-30T20:17:26;10.80;;;3.40;;
58966;SDS011;44744;51.894;5.080;2024-01-30T20:22:26;12.60;;;4.20;;
58966;SDS011;44744;51.894;5.080;2024-01-30T20:27:27;13.60;;;3.20;;
58966;SDS011;44744;51.894;5.080;2024-01-30T20:32:28;9.70;;;3.30;;
58966;SDS011;44744;51.894;5.080;2024-01-30T20:37:29;15.50;;;3.30;;
58966;SDS011;44744;51.894;5.080;2024-01-30T20:42:29;16.30;;;3.70;;
58966;SDS011;44744;51.894;5.080;2024-01-30T20:47:30;10.70;;;3.70;;
58966;SDS011;44744;51.894;5.080;2024-01-30T20:52:31;13.30;;;3.70;;
58966;SDS011;44744;51.894;5.080;2024-01-30T20:57:32;10.00;;;2.80;;
58966;SDS011;44744;51.894;5.080;2024-01-30T21:02:35;19.50;;;4.50;;
58966;SDS011;44744;51.894;5.080;2024-01-30T21:07:40;11.60;;;2.80;;
58966;SDS011;44744;51.894;5.080;2024-01-30T21:12:40;11.20;;;3.50;;
58966;SDS011;44744;51.894;5.080;2024-01-30T21:17:41;12.70;;;2.90;;
58966;SDS011;44744;51.894;5.080;2024-01-30T21:22:41;8.80;;;1.90;;
58966;SDS011;44744;51.894;5.080;2024-01-30T21:27:42;10.70;;;2.80;;
58966;SDS011;44744;51.894;5.080;2024-01-30T21:32:42;13.50;;;2.60;;
58966;SDS011;44744;51.894;5.080;2024-01-30T21:37:43;8.30;;;2.00;;
58966;SDS011;44744;51.894;5.080;2024-01-30T21:42:43;13.90;;;2.60;;
58966;SDS011;44744;51.894;5.080;2024-01-30T21:47:45;6.10;;;2.10;;
58966;SDS011;44744;51.894;5.080;2024-01-30T21:52:54;13.70;;;3.00;;
58966;SDS011;44744;51.894;5.080;2024-01-30T21:57:54;10.20;;;2.50;;
58966;SDS011;44744;51.894;5.080;2024-01-30T22:02:55;8.90;;;2.30;;
58966;SDS011;44744;51.894;5.080;2024-01-30T22:07:55;8.80;;;2.40;;
58966;SDS011;44744;51.894;5.080;2024-01-30T22:12:55;10.90;;;2.30;;
58966;SDS011;44744;51.894;5.080;2024-01-30T22:17:56;9.50;;;2.50;;
58966;SDS011;44744;51.894;5.080;2024-01-30T22:22:56;6.30;;;1.90;;
58966;SDS011;44744;51.894;5.080;2024-01-30T22:27:57;6.80;;;2.00;;
58966;SDS011;44744;51.894;5.080;2024-01-30T22:32:58;7.00;;;1.80;;
58966;SDS011;44744;51.894;5.080;2024-01-30T22:37:58;5.10;;;1.70;;
58966;SDS011;44744;51.894;5.080;2024-01-30T22:42:58;8.30;;;2.10;;
58966;SDS011;44744;51.894;5.080;2024-01-30T22:47:59;4.70;;;2.00;;
58966;SDS011;44744;51.894;5.080;2024-01-30T22:52:59;5.90;;;1.60;;
58966;SDS011;44744;51.894;5.080;2024-01-30T22:58:00;7.80;;;1.70;;
58966;SDS011;44744;51.894;5.080;2024-01-30T23:03:00;5.00;;;1.60;;
58966;SDS011;44744;51.894;5.080;2024-01-30T23:08:00;7.30;;;1.60;;
58966;SDS011;44744;51.894;5.080;2024-01-30T23:13:01;4.70;;;1.30;;
58966;SDS011;44744;51.894;5.080;2024-01-30T23:18:02;3.90;;;1.40;;
58966;SDS011;44744;51.894;5.080;2024-01-30T23:23:03;5.40;;;1.60;;
58966;SDS011;44744;51.894;5.080;2024-01-30T23:28:04;3.70;;;1.40;;
58966;SDS011;44744;51.894;5.080;2024-01-30T23:33:05;4.80;;;2.00;;
58966;SDS011;44744;51.894;5.080;2024-01-30T23:38:05;5.00;;;1.60;;
58966;SDS011;44744;51.894;5.080;2024-01-30T23:43:05;4.70;;;1.60;;
58966;SDS011;44744;51.894;5.080;2024-01-30T23:48:06;4.00;;;1.40;;
58966;SDS011;44744;51.894;5.080;2024-01-30T23:53:08;4.00;;;1.20;;
58966;SDS011;44744;51.894;5.080;2024-01-30T23:58:08;3.50;;;1.20;;
